Time;durP1;ratioP1;P1;durP2;ratioP2;P2;SDS_P1;SDS_P2;PMS_P1;PMS_P2;Temp;Humidity;BMP_temperature;BMP_pressure;BME280_temperature;BME280_humidity;BME280_pressure;Samples;Min_cycle;Max_cycle;Signal;HPM_P1;HPM_P2
2021/07/21 00:00:31;;;;;;;8.52;0.93;;;;;;;14.05;100.00;100470.47;5011959;28;20042;-77
2021/07/21 00:03:35;;;;;;;0.63;0.35;;;;;;;13.98;100.00;100470.06;5012090;28;20069;-76
2021/07/21 00:06:38;;;;;;;1.58;0.40;;;;;;;13.91;100.00;100470.47;5011633;28;20080;-76
2021/07/21 00:09:42;;;;;;;2.95;0.60;;;;;;;13.81;100.00;100471.81;5011832;28;20065;-76
2021/07/21 00:22:44;;;;;;;1.83;0.90;;;;;;;13.60;100.00;100468.13;5031812;28;20056;-77
2021/07/21 00:25:49;;;;;;;1.17;0.43;;;;;;;13.56;100.00;100479.53;5031637;28;20048;-76
2021/07/21 00:28:52;;;;;;;2.22;0.57;;;;;;;13.56;100.00;100479.53;5034936;28;20044;-76
2021/07/21 00:31:56;;;;;;;1.30;0.73;;;;;;;13.55;100.00;100478.00;5035291;28;20049;-76
2021/07/21 00:34:59;;;;;;;0.63;0.30;;;;;;;13.51;100.00;100477.38;5034877;28;20045;-77
2021/07/21 00:38:04;;;;;;;1.35;0.52;;;;;;;13.43;100.00;100476.22;5034182;28;20052;-76
2021/07/21 00:41:07;;;;;;;3.58;0.43;;;;;;;13.38;100.00;100484.53;5034699;28;20052;-76
2021/07/21 00:44:11;;;;;;;3.22;1.27;;;;;;;13.37;100.00;100483.75;5034852;28;20049;-77
2021/07/21 00:47:14;;;;;;;1.10;0.35;;;;;;;13.34;100.00;100476.28;5034957;28;20056;-77
2021/07/21 00:50:18;;;;;;;1.90;0.55;;;;;;;13.36;100.00;100476.59;5035093;28;20504;-77
2021/07/21 00:53:22;;;;;;;2.63;0.73;;;;;;;13.36;100.00;100476.59;5034587;28;20056;-77
2021/07/21 00:56:26;;;;;;;1.48;0.30;;;;;;;13.29;100.00;100471.38;5034217;28;20116;-77
2021/07/21 00:59:33;;;;;;;2.08;0.63;;;;;;;13.18;100.00;100475.97;5034549;28;20048;-77
2021/07/21 01:02:37;;;;;;;1.23;0.43;;;;;;;13.06;100.00;100471.44;5034657;28;20509;-77
2021/07/21 01:05:42;;;;;;;1.30;0.73;;;;;;;12.98;100.00;100473.78;5033795;28;20048;-77
2021/07/21 01:08:45;;;;;;;4.90;0.68;;;;;;;12.99;100.00;100474.53;5033574;28;20056;-77
2021/07/21 01:11:58;;;;;;;2.33;0.50;;;;;;;12.98;100.00;100473.00;5033028;28;20045;-77
2021/07/21 01:15:09;;;;;;;1.83;0.22;;;;;;;12.97;100.00;100479.84;5033471;28;20061;-77
2021/07/21 01:18:16;;;;;;;;;;;;;;;12.87;100.00;100479.13;5032995;28;20060;-75
2021/07/21 01:21:43;;;;;;;0.68;0.65;;;;;;;12.81;100.00;100481.03;5034042;28;19924;-76
2021/07/21 01:24:46;;;;;;;2.88;0.95;;;;;;;12.80;100.00;100485.84;5034139;28;20061;-75
2021/07/21 01:27:55;;;;;;;4.25;0.65;;;;;;;12.77;100.00;100481.22;5033534;28;20060;-75
2021/07/21 01:31:01;;;;;;;2.30;0.73;;;;;;;12.76;100.00;100478.88;5034003;28;20508;-75
2021/07/21 01:34:08;;;;;;;0.47;0.10;;;;;;;12.74;100.00;100481.38;5033900;28;20433;-75
2021/07/21 01:37:12;;;;;;;2.83;0.93;;;;;;;12.73;100.00;100483.41;5034230;28;20053;-75
2021/07/21 01:40:22;;;;;;;1.27;0.45;;;;;;;12.67;100.00;100499.28;5033348;28;20052;-75
2021/07/21 01:43:29;;;;;;;1.85;0.70;;;;;;;12.60;100.00;100493.28;5033510;28;20056;-75
2021/07/21 01:46:34;;;;;;;2.17;0.30;;;;;;;12.56;100.00;100492.69;5033426;28;20060;-75
2021/07/21 01:49:39;;;;;;;1.83;0.30;;;;;;;12.54;100.00;100495.19;5033521;28;20048;-75
2021/07/21 01:52:48;;;;;;;1.63;0.40;;;;;;;12.52;100.00;100494.84;5033732;28;20066;-75
2021/07/21 01:55:53;;;;;;;1.67;0.60;;;;;;;12.46;100.00;100499.53;5033447;28;20056;-76
2021/07/21 01:58:57;;;;;;;1.60;0.75;;;;;;;12.41;100.00;100494.63;5033662;28;20052;-76
2021/07/21 02:02:02;;;;;;;0.73;0.57;;;;;;;12.33;100.00;100501.78;5033426;28;20438;-76
2021/07/21 02:05:07;;;;;;;1.90;0.57;;;;;;;12.35;100.00;100499.28;5032973;28;20061;-76
2021/07/21 02:08:12;;;;;;;3.28;1.20;;;;;;;12.31;100.00;100493.88;5032735;28;20052;-76
2021/07/21 02:11:16;;;;;;;4.03;0.90;;;;;;;12.30;100.00;100500.69;5033306;28;20057;-75
2021/07/21 02:14:20;;;;;;;13.23;1.45;;;;;;;12.30;100.00;100516.69;5013479;28;20113;-76
2021/07/21 02:17:25;;;;;;;2.35;0.93;;;;;;;12.28;100.00;100516.41;5013980;28;20045;-76
2021/07/21 02:20:29;;;;;;;2.28;0.82;;;;;;;12.30;100.00;100513.91;5031986;28;20044;-76
2021/07/21 02:23:34;;;;;;;4.50;1.42;;;;;;;12.25;100.00;100511.75;5032609;28;20052;-76
2021/07/21 02:26:39;;;;;;;0.70;0.57;;;;;;;12.22;100.00;100523.84;5032687;28;20406;-76
2021/07/21 02:29:43;;;;;;;2.03;1.00;;;;;;;12.21;100.00;100519.50;5032868;28;20060;-76
2021/07/21 02:32:56;;;;;;;2.78;1.67;;;;;;;12.17;100.00;100517.66;5032910;28;20406;-76
2021/07/21 02:36:02;;;;;;;1.33;0.68;;;;;;;12.15;100.00;100520.13;5032056;28;20402;-75
2021/07/21 02:39:07;;;;;;;2.95;0.60;;;;;;;12.08;100.00;100514.88;5032668;28;20068;-76
2021/07/21 02:42:12;;;;;;;2.03;0.75;;;;;;;12.05;100.00;100507.47;5032788;28;20096;-76
2021/07/21 02:45:16;;;;;;;1.52;0.80;;;;;;;11.95;100.00;100505.91;5032643;28;20520;-75
2021/07/21 02:48:19;;;;;;;1.85;0.60;;;;;;;11.93;100.00;100508.41;5032293;28;20061;-75
2021/07/21 02:51:41;;;;;;;1.35;0.40;;;;;;;11.90;100.00;100511.38;5032798;28;20437;-76
2021/07/21 02:55:02;;;;;;;1.13;0.50;;;;;;;11.84;100.00;100505.66;5032750;28;20060;-75
2021/07/21 02:58:30;;;;;;;1.45;0.70;;;;;;;11.82;100.00;100513.72;5032287;28;20060;-76
2021/07/21 03:01:37;;;;;;;12.15;1.00;;;;;;;11.86;100.00;100508.75;5032090;28;20533;-76
2021/07/21 03:04:41;;;;;;;4.47;1.27;;;;;;;11.87;100.00;100510.28;5032116;28;20049;-76
2021/07/21 03:07:48;;;;;;;1.02;0.55;;;;;;;11.82;100.00;100508.16;5032334;28;20060;-75
2021/07/21 03:10:55;;;;;;;6.28;1.13;;;;;;;11.84;100.00;100504.88;5032210;28;20048;-75
2021/07/21 03:14:00;;;;;;;1.63;0.40;;;;;;;11.80;100.00;100510.59;5031964;28;20052;-75
2021/07/21 03:17:05;;;;;;;2.33;1.15;;;;;;;11.77;100.00;100505.97;5032517;28;20072;-75
2021/07/21 03:20:10;;;;;;;2.97;0.63;;;;;;;11.76;100.00;100507.22;5031660;28;20497;-76
2021/07/21 03:23:14;;;;;;;2.92;0.85;;;;;;;11.72;100.00;100505.81;5032330;28;20056;-75
2021/07/21 03:26:19;;;;;;;0.93;0.25;;;;;;;11.68;100.00;100506.00;5032302;28;20052;-76
2021/07/21 03:29:23;;;;;;;1.10;0.30;;;;;;;11.62;100.00;100510.63;5031978;28;20048;-75
2021/07/21 03:32:27;;;;;;;0.60;0.40;;;;;;;11.56;100.00;100509.72;5031923;28;20056;-75
2021/07/21 03:35:33;;;;;;;1.20;0.50;;;;;;;11.55;100.00;100508.16;5031895;28;20048;-75
2021/07/21 03:38:38;;;;;;;3.03;0.77;;;;;;;11.53;100.00;100509.84;5031931;28;20390;-75
2021/07/21 03:41:42;;;;;;;5.57;1.08;;;;;;;11.53;100.00;100519.00;5031870;28;20065;-75
2021/07/21 03:44:47;;;;;;;3.58;0.80;;;;;;;11.53;100.00;100513.41;5031869;28;20049;-75
2021/07/21 03:47:51;;;;;;;2.25;1.20;;;;;;;11.52;100.00;100523.00;5031752;28;20050;-75
2021/07/21 03:50:58;;;;;;;1.25;0.43;;;;;;;11.51;100.00;100527.06;5031935;28;20052;-75
2021/07/21 03:54:05;;;;;;;1.52;0.63;;;;;;;11.49;100.00;100525.97;5031483;28;20108;-75
2021/07/21 03:57:11;;;;;;;1.60;0.52;;;;;;;11.48;100.00;100522.41;5031804;28;20056;-76
2021/07/21 04:00:20;;;;;;;2.42;1.30;;;;;;;11.45;100.00;100528.94;5031495;28;20386;-75
2021/07/21 04:03:27;;;;;;;1.75;0.80;;;;;;;11.43;100.00;100532.16;5034413;28;20056;-75
2021/07/21 04:06:36;;;;;;;2.35;0.63;;;;;;;11.45;100.00;100537.28;5035373;28;20064;-76
2021/07/21 04:09:41;;;;;;;2.30;0.82;;;;;;;11.45;100.00;100534.50;5035312;28;20053;-75
2021/07/21 04:12:51;;;;;;;2.83;0.93;;;;;;;11.44;100.00;100544.09;5035215;28;20049;-75
2021/07/21 04:15:55;;;;;;;0.77;0.30;;;;;;;11.42;100.00;100535.41;5035470;28;20052;-75
2021/07/21 04:19:00;;;;;;;4.05;0.80;;;;;;;11.36;100.00;100540.84;5035292;28;20421;-76
2021/07/21 04:22:04;;;;;;;2.22;0.30;;;;;;;11.30;100.00;100533.56;5035186;28;20053;-76
2021/07/21 04:25:10;;;;;;;2.83;1.20;;;;;;;11.28;100.00;100542.38;5034824;28;20048;-76
2021/07/21 04:28:14;;;;;;;0.85;0.70;;;;;;;11.28;100.00;100536.81;5035042;28;20072;-76
2021/07/21 04:31:26;;;;;;;6.90;1.30;;;;;;;11.29;100.00;100537.59;5035089;28;20848;-76
2021/07/21 04:34:30;;;;;;;;;;;;;;;11.29;100.00;100548.75;5035334;28;20056;-76
2021/07/21 04:37:36;;;;;;;2.40;0.40;;;;;;;11.30;100.00;100537.09;5034277;28;20289;-75
2021/07/21 04:40:44;;;;;;;2.38;0.73;;;;;;;11.34;100.00;100542.56;5035058;28;20057;-76
2021/07/21 04:43:48;;;;;;;6.53;1.27;;;;;;;11.38;100.00;100551.53;5034142;28;20048;-76
2021/07/21 04:46:53;;;;;;;2.85;0.73;;;;;;;11.34;100.00;100548.13;5034747;28;20069;-75
2021/07/21 04:49:58;;;;;;;2.15;0.57;;;;;;;11.38;100.00;100554.31;5034914;28;20627;-76
2021/07/21 04:53:02;;;;;;;1.20;0.50;;;;;;;11.38;100.00;100559.91;5034844;28;20398;-75
2021/07/21 04:56:05;;;;;;;2.90;0.60;;;;;;;11.41;100.00;100564.56;5034675;28;20057;-75
2021/07/21 04:59:09;;;;;;;2.42;0.55;;;;;;;11.44;100.00;100569.19;5034358;28;20045;-75
2021/07/21 05:02:15;;;;;;;0.73;0.50;;;;;;;11.49;100.00;100563.00;5034718;28;20092;-75
2021/07/21 05:05:19;;;;;;;2.78;0.55;;;;;;;11.58;100.00;100576.19;5034638;28;20052;-75
2021/07/21 05:08:22;;;;;;;0.65;0.60;;;;;;;11.60;100.00;100571.69;5034341;28;20108;-75
2021/07/21 05:11:26;;;;;;;1.00;0.60;;;;;;;11.62;100.00;100574.78;5034312;28;20053;-75
2021/07/21 05:14:30;;;;;;;1.00;0.47;;;;;;;11.71;100.00;100588.78;5013581;28;20057;-75
2021/07/21 05:17:33;;;;;;;1.85;1.30;;;;;;;11.78;100.00;100588.44;5014626;28;20513;-75
2021/07/21 05:20:37;;;;;;;1.85;0.93;;;;;;;11.81;100.00;100590.31;5014360;28;20052;-75
2021/07/21 05:23:40;;;;;;;2.30;0.22;;;;;;;11.91;100.00;100593.88;5014099;28;20076;-76
2021/07/21 05:26:43;;;;;;;0.35;0.30;;;;;;;12.03;100.00;100592.91;5013801;28;20072;-75
2021/07/21 05:29:47;;;;;;;0.82;0.22;;;;;;;12.13;100.00;100589.66;5012781;28;20486;-76
2021/07/21 05:32:50;;;;;;;0.90;0.50;;;;;;;12.19;100.00;100600.97;5014149;28;20510;-76
2021/07/21 05:35:54;;;;;;;2.97;0.50;;;;;;;12.27;100.00;100599.41;5014030;28;20052;-76
2021/07/21 05:38:57;;;;;;;1.67;0.52;;;;;;;12.32;100.00;100603.56;5013825;28;20060;-76
2021/07/21 05:42:00;;;;;;;4.05;1.13;;;;;;;12.43;100.00;100601.81;5013969;28;20521;-76
2021/07/21 05:45:04;;;;;;;2.10;0.70;;;;;;;12.52;100.00;100601.00;5013813;28;20053;-76
2021/07/21 05:48:08;;;;;;;1.67;0.68;;;;;;;12.64;100.00;100602.84;5027205;28;20053;-76
2021/07/21 05:51:11;;;;;;;4.70;0.47;;;;;;;12.74;100.00;100615.53;5033314;28;20519;-76
2021/07/21 05:54:15;;;;;;;3.38;0.70;;;;;;;12.92;100.00;100609.88;5032495;28;20052;-76
2021/07/21 05:57:19;;;;;;;1.73;0.77;;;;;;;13.23;100.00;100618.72;5030127;28;20056;-76
2021/07/21 06:00:23;;;;;;;0.95;0.60;;;;;;;13.51;100.00;100614.50;5030569;28;20052;-76
2021/07/21 06:03:26;;;;;;;3.50;0.82;;;;;;;13.80;100.00;100615.84;5030749;28;20049;-76
2021/07/21 06:06:30;;;;;;;2.92;0.40;;;;;;;14.07;100.00;100615.63;5031195;28;20052;-76
2021/07/21 06:09:34;;;;;;;0.93;0.73;;;;;;;14.30;100.00;100611.97;5032279;28;20061;-76
2021/07/21 06:12:37;;;;;;;2.42;0.93;;;;;;;14.55;100.00;100614.22;5033189;28;20044;-76
2021/07/21 06:15:41;;;;;;;1.45;0.75;;;;;;;14.79;100.00;100623.25;5033169;28;20075;-76
2021/07/21 06:18:44;;;;;;;3.15;0.60;;;;;;;14.98;100.00;100618.97;5032907;28;20069;-75
2021/07/21 06:21:48;;;;;;;2.45;0.73;;;;;;;15.19;100.00;100616.97;5033369;28;20053;-76
2021/07/21 06:24:52;;;;;;;4.15;1.05;;;;;;;15.36;100.00;100614.38;5032896;28;20438;-76
2021/07/21 06:27:55;;;;;;;3.40;0.52;;;;;;;15.53;100.00;100616.19;5032424;28;20080;-76
2021/07/21 06:30:59;;;;;;;0.85;0.63;;;;;;;15.71;100.00;100612.31;5032981;28;20064;-76
2021/07/21 06:34:03;;;;;;;1.13;0.50;;;;;;;15.84;100.00;100616.31;5032406;28;20060;-76
2021/07/21 06:37:08;;;;;;;1.63;0.55;;;;;;;15.96;100.00;100616.44;5033365;28;20064;-76
2021/07/21 06:40:11;;;;;;;0.55;0.35;;;;;;;16.14;100.00;100616.88;5031950;28;20056;-76
2021/07/21 06:43:15;;;;;;;2.78;0.50;;;;;;;16.35;100.00;100615.56;5032574;28;20064;-77
2021/07/21 06:46:20;;;;;;;2.05;0.40;;;;;;;16.58;100.00;100616.56;5032623;28;20056;-76
2021/07/21 06:49:23;;;;;;;0.65;0.38;;;;;;;16.73;100.00;100616.44;5032365;28;20064;-76
2021/07/21 06:52:27;;;;;;;2.53;0.90;;;;;;;16.84;100.00;100622.16;5032415;28;20057;-76
2021/07/21 06:55:30;;;;;;;0.43;0.43;;;;;;;17.00;100.00;100618.69;5032605;28;20068;-76
2021/07/21 06:58:33;;;;;;;3.00;0.35;;;;;;;17.11;100.00;100619.50;5032313;28;20061;-77
2021/07/21 07:01:37;;;;;;;1.85;0.50;;;;;;;17.26;100.00;100620.13;5032213;28;20081;-76
2021/07/21 07:04:40;;;;;;;2.80;0.70;;;;;;;17.35;100.00;100619.91;5032220;28;20053;-77
2021/07/21 07:07:44;;;;;;;2.17;0.73;;;;;;;17.47;100.00;100620.75;5031852;28;20052;-77
2021/07/21 07:10:47;;;;;;;9.98;2.10;;;;;;;17.77;100.00;100623.97;5032229;28;20063;-77
2021/07/21 07:13:51;;;;;;;6.03;1.75;;;;;;;18.00;100.00;100632.00;5032018;28;20401;-77
2021/07/21 07:16:54;;;;;;;13.90;3.13;;;;;;;18.17;100.00;100634.84;5032295;28;20053;-77
2021/07/21 07:19:57;;;;;;;26.40;5.00;;;;;;;18.23;100.00;100637.69;5032224;28;20049;-77
2021/07/21 07:23:01;;;;;;;21.90;4.22;;;;;;;18.36;100.00;100626.69;5031891;28;20049;-77
2021/07/21 07:26:04;;;;;;;15.27;3.92;;;;;;;18.52;100.00;100634.41;5032062;28;20045;-77
2021/07/21 07:29:07;;;;;;;31.20;4.22;;;;;;;18.73;100.00;100647.03;5032116;28;20041;-77
2021/07/21 07:32:11;;;;;;;18.73;5.00;;;;;;;18.82;100.00;100629.81;5031983;28;20050;-77
2021/07/21 07:35:15;;;;;;;22.52;4.78;;;;;;;18.88;100.00;100639.06;5031940;28;20045;-77
2021/07/21 07:38:18;;;;;;;20.40;4.38;;;;;;;18.95;100.00;100641.34;5034782;28;20049;-77
2021/07/21 07:41:22;;;;;;;23.58;4.40;;;;;;;18.97;100.00;100641.63;5035797;28;20049;-78
2021/07/21 07:44:27;;;;;;;22.30;6.03;;;;;;;19.04;100.00;100643.91;5036053;28;20053;-77
2021/07/21 07:47:32;;;;;;;19.13;5.38;;;;;;;19.13;100.00;100640.81;5035768;28;20433;-78
2021/07/21 07:50:36;;;;;;;14.23;4.43;;;;;;;19.29;100.00;100637.22;5035577;28;20049;-77
2021/07/21 07:53:40;;;;;;;18.42;4.35;;;;;;;19.33;100.00;100640.53;5035146;28;20406;-77
2021/07/21 07:56:43;;;;;;;20.70;3.63;;;;;;;19.37;100.00;100645.94;5035100;28;20049;-77
2021/07/21 07:59:47;;;;;;;15.55;5.22;;;;;;;19.43;100.00;100646.69;5034997;28;20053;-78
2021/07/21 08:02:50;;;;;;;17.60;4.82;;;;;;;19.56;100.00;100639.19;5035821;28;20486;-78
2021/07/21 08:05:55;;;;;;;17.08;3.63;;;;;;;19.64;100.00;100640.19;5035807;28;20053;-79
2021/07/21 08:08:58;;;;;;;17.42;3.38;;;;;;;19.72;100.00;100646.09;5035436;28;20045;-78
2021/07/21 08:12:02;;;;;;;10.95;2.70;;;;;;;19.83;100.00;100643.22;5034117;28;20042;-78
2021/07/21 08:15:06;;;;;;;3.92;1.60;;;;;;;19.88;100.00;100650.13;5035400;28;20042;-78
2021/07/21 08:18:12;;;;;;;7.22;2.65;;;;;;;20.07;100.00;100642.59;5035450;28;20516;-78
2021/07/21 08:21:15;;;;;;;9.20;2.80;;;;;;;20.28;100.00;100649.44;5035339;28;20057;-78
2021/07/21 08:24:19;;;;;;;6.82;2.65;;;;;;;20.46;100.00;100645.19;5035232;28;20056;-78
2021/07/21 08:27:22;;;;;;;7.82;3.40;;;;;;;20.67;100.00;100649.94;5034726;28;20044;-76
2021/07/21 08:30:25;;;;;;;10.68;2.50;;;;;;;20.86;100.00;100639.47;5034930;28;20060;-75
2021/07/21 08:33:29;;;;;;;5.40;1.98;;;;;;;21.04;100.00;100633.16;5035134;28;20045;-75
2021/07/21 08:36:34;;;;;;;9.93;2.42;;;;;;;21.22;100.00;100642.28;5035175;28;20048;-74
2021/07/21 08:39:38;;;;;;;8.60;2.53;;;;;;;21.45;100.00;100635.06;5034718;28;20049;-74
2021/07/21 08:42:41;;;;;;;10.23;2.47;;;;;;;21.68;100.00;100642.00;5034366;28;20056;-74
2021/07/21 08:45:45;;;;;;;5.72;2.08;;;;;;;21.93;100.00;100637.84;5034766;28;20049;-74
2021/07/21 08:48:53;;;;;;;6.78;2.47;;;;;;;22.07;100.00;100636.63;5034564;28;20064;-75
2021/07/21 08:51:58;;;;;;;5.90;2.55;;;;;;;22.20;100.00;100631.00;5035060;28;20060;-75
2021/07/21 08:55:06;;;;;;;10.65;2.33;;;;;;;22.32;100.00;100626.72;5034883;28;20398;-75
2021/07/21 08:58:11;;;;;;;6.85;1.50;;;;;;;22.48;100.00;100631.38;5034654;28;20053;-75
2021/07/21 09:01:17;;;;;;;11.57;2.38;;;;;;;22.66;100.00;100626.22;5034511;28;20532;-75
2021/07/21 09:04:21;;;;;;;11.07;2.83;;;;;;;22.88;100.00;100628.69;5034597;28;20049;-75
2021/07/21 09:07:24;;;;;;;7.85;1.67;;;;;;;23.11;100.00;100624.13;5033689;28;20054;-74
2021/07/21 09:10:28;;;;;;;5.88;2.35;;;;;;;23.23;100.00;100622.63;5034104;28;20049;-74
2021/07/21 09:13:36;;;;;;;13.90;3.00;;;;;;;23.40;100.00;100623.09;5034242;28;20057;-74
2021/07/21 09:16:40;;;;;;;12.10;2.58;;;;;;;23.61;100.00;100621.13;5033500;28;20049;-74
2021/07/21 09:19:47;;;;;;;9.15;2.20;;;;;;;23.72;100.00;100626.59;5034196;28;20037;-74
2021/07/21 09:22:55;;;;;;;7.55;2.45;;;;;;;23.79;100.00;100631.63;5034064;28;20044;-74
2021/07/21 09:25:58;;;;;;;6.68;2.08;;;;;;;23.83;100.00;100626.38;5033778;28;20052;-75
2021/07/21 09:29:02;;;;;;;9.15;2.30;;;;;;;23.92;100.00;100633.69;5033838;28;20060;-74
2021/07/21 09:32:06;;;;;;;10.60;2.38;;;;;;;24.01;100.00;100634.00;5034214;28;20064;-75
2021/07/21 09:35:14;;;;;;;4.40;1.75;;;;;;;24.04;100.00;100623.56;5033988;28;20045;-75
2021/07/21 09:38:21;;;;;;;9.48;1.90;;;;;;;24.17;100.00;100625.66;5034147;28;20402;-75
2021/07/21 09:41:24;;;;;;;8.00;3.13;;;;;;;24.26;100.00;100625.19;5033802;28;20076;-75
2021/07/21 09:44:46;;;;;;;4.43;2.28;;;;;;;24.46;100.00;100627.31;5033578;28;20049;-75
2021/07/21 09:47:52;;;;;;;10.10;1.83;;;;;;;24.55;100.00;100621.91;5033485;28;20390;-75
2021/07/21 09:50:55;;;;;;;8.98;1.15;;;;;;;24.47;100.00;100632.44;5033002;28;20049;-75
2021/07/21 09:54:17;;;;;;;6.30;2.47;;;;;;;24.57;100.00;100636.34;5033408;28;20516;-74
2021/07/21 09:57:20;;;;;;;7.15;1.83;;;;;;;24.55;100.00;100630.44;5033420;28;20156;-75
2021/07/21 10:00:26;;;;;;;5.70;1.50;;;;;;;24.65;100.00;100630.72;5032471;28;20056;-74
2021/07/21 10:03:30;;;;;;;7.95;1.77;;;;;;;24.78;100.00;100633.53;5033508;28;20072;-74
2021/07/21 10:06:39;;;;;;;7.20;2.03;;;;;;;24.87;100.00;100635.13;5033032;28;20052;-75
2021/07/21 10:09:43;;;;;;;5.40;1.25;;;;;;;24.91;100.00;100638.38;5031606;28;20410;-75
2021/07/21 10:13:07;;;;;;;10.80;2.75;;;;;;;25.00;100.00;100641.53;5033033;28;20056;-75
2021/07/21 10:16:10;;;;;;;10.02;2.30;;;;;;;25.07;100.00;100637.97;5033267;28;20053;-75
2021/07/21 10:19:22;;;;;;;9.00;2.05;;;;;;;25.32;100.00;100638.34;5033191;28;20402;-75
2021/07/21 10:22:27;;;;;;;5.38;1.95;;;;;;;25.50;100.00;100640.97;5032962;28;20116;-75
2021/07/21 10:25:30;;;;;;;11.40;2.75;;;;;;;25.54;100.00;100641.38;5033400;28;20405;-75
2021/07/21 10:28:34;;;;;;;7.97;1.95;;;;;;;25.73;100.00;100643.19;5032891;28;20042;-75
2021/07/21 10:31:38;;;;;;;9.07;2.10;;;;;;;25.89;100.00;100648.41;5033754;28;20508;-75
2021/07/21 10:34:42;;;;;;;4.97;2.05;;;;;;;25.86;100.00;100645.94;5035554;28;20053;-75
2021/07/21 10:37:46;;;;;;;12.35;2.83;;;;;;;25.99;100.00;100637.25;5032276;28;20508;-75
2021/07/21 10:40:50;;;;;;;8.13;2.15;;;;;;;25.82;100.00;100636.94;5032835;28;20037;-75
2021/07/21 10:43:55;;;;;;;7.20;2.05;;;;;;;25.67;100.00;100643.34;5032846;28;20052;-75
2021/07/21 10:46:59;;;;;;;14.88;2.78;;;;;;;25.58;100.00;100645.97;5032678;28;20056;-75
2021/07/21 10:50:40;;;;;;;6.47;1.95;;;;;;;25.33;100.00;100649.19;5032617;28;20053;-75
2021/07/21 10:54:00;;;;;;;8.35;2.42;;;;;;;25.46;100.00;100640.56;5032034;28;20402;-75
2021/07/21 11:00:42;;;;;;;7.75;2.17;;;;;;;25.33;100.00;100637.78;5031944;28;20049;-75
2021/07/21 11:03:46;;;;;;;5.38;1.40;;;;;;;25.49;100.00;100645.13;5031755;28;20045;-75
2021/07/21 11:06:51;;;;;;;8.30;1.40;;;;;;;25.63;100.00;100637.25;5031602;28;20052;-75
2021/07/21 11:10:04;;;;;;;5.95;1.85;;;;;;;25.87;100.00;100633.19;5032139;28;20398;-74
2021/07/21 11:13:38;;;;;;;9.70;2.00;;;;;;;26.38;100.00;100642.53;5031310;28;20500;-74
2021/07/21 11:17:11;;;;;;;8.73;2.50;;;;;;;26.97;100.00;100641.13;5032405;28;20650;-75
2021/07/21 11:20:15;;;;;;;3.92;1.45;;;;;;;27.10;100.00;100637.31;5032322;28;20510;-75
2021/07/21 11:23:47;;;;;;;3.63;0.95;;;;;;;27.34;100.00;100635.94;5032278;28;20057;-75
2021/07/21 11:26:52;;;;;;;9.10;1.45;;;;;;;27.32;100.00;100630.03;5043068;28;20060;-75
2021/07/21 11:29:55;;;;;;;14.13;2.35;;;;;;;27.27;100.00;100633.84;5032075;28;20053;-75
2021/07/21 11:33:36;;;;;;;3.63;1.48;;;;;;;27.15;100.00;100627.78;5032148;28;20042;-75
2021/07/21 11:36:49;;;;;;;3.42;1.33;;;;;;;26.99;100.00;100627.00;5032039;28;20053;-75
2021/07/21 11:40:12;;;;;;;2.95;0.93;;;;;;;26.85;100.00;100622.84;5032324;28;20402;-75
2021/07/21 11:43:33;;;;;;;5.68;1.77;;;;;;;26.70;100.00;100622.78;5031936;28;20049;-75
2021/07/21 11:46:37;;;;;;;8.43;1.15;;;;;;;26.63;100.00;100626.41;5042692;28;20072;-75
2021/07/21 11:49:53;;;;;;;3.97;1.40;;;;;;;26.95;100.00;100615.19;5031525;28;20052;-75
2021/07/21 11:53:00;;;;;;;5.05;0.90;;;;;;;27.21;100.00;100621.84;5032051;28;20049;-74
2021/07/21 11:56:08;;;;;;;4.10;1.15;;;;;;;27.52;100.00;100620.50;5031943;28;20052;-75
2021/07/21 11:59:12;;;;;;;7.93;1.27;;;;;;;27.81;100.00;100618.88;5032386;28;20398;-74
2021/07/21 12:02:18;;;;;;;5.45;1.05;;;;;;;27.95;100.00;100617.31;5031927;28;20488;-75
2021/07/21 12:05:22;;;;;;;5.05;1.13;;;;;;;27.94;100.00;100612.16;5031673;28;20072;-75
2021/07/21 12:08:25;;;;;;;5.70;1.48;;;;;;;27.52;100.00;100623.34;5031008;28;20076;-75
2021/07/21 12:11:28;;;;;;;12.15;1.75;;;;;;;26.99;100.00;100620.53;5031901;28;20060;-75
2021/07/21 12:14:33;;;;;;;7.18;1.67;;;;;;;27.32;100.00;100618.59;5012134;28;20045;-75
2021/07/21 12:17:37;;;;;;;6.45;1.65;;;;;;;27.63;100.00;100620.09;5011771;28;20048;-74
2021/07/21 12:20:44;;;;;;;2.40;1.30;;;;;;;27.89;100.00;100621.72;5011812;28;20061;-75
2021/07/21 12:23:59;;;;;;;4.90;1.25;;;;;;;28.24;100.00;100609.91;5014059;28;20588;-74
2021/07/21 12:27:04;;;;;;;8.73;1.67;;;;;;;28.25;100.00;100607.81;5018492;28;20149;-74
2021/07/21 12:30:10;;;;;;;5.10;1.85;;;;;;;28.17;100.00;100613.59;5015328;28;20057;-74
2021/07/21 12:33:19;;;;;;;4.90;1.10;;;;;;;28.22;100.00;100611.88;5015356;28;20053;-72
2021/07/21 12:36:23;;;;;;;4.03;1.50;;;;;;;27.73;100.00;100618.16;5015063;28;20057;-70
2021/07/21 12:39:28;;;;;;;3.60;1.17;;;;;;;27.43;100.00;100612.50;5014831;28;20105;-71
2021/07/21 12:42:32;;;;;;;4.10;1.73;;;;;;;27.64;100.00;100618.75;5014443;28;20497;-70
2021/07/21 12:45:35;;;;;;;11.20;1.20;;;;;;;27.87;100.00;100616.56;5014731;28;20056;-70
2021/07/21 12:48:39;;;;;;;7.30;1.38;;;;;;;28.15;100.00;100609.78;5014795;28;20402;-71
2021/07/21 12:51:44;;;;;;;5.22;1.30;;;;;;;28.19;100.00;100608.06;5014633;28;20045;-71
2021/07/21 12:54:53;;;;;;;3.80;1.33;;;;;;;28.25;100.00;100605.72;5014406;28;20061;-71
2021/07/21 12:57:59;;;;;;;4.40;1.00;;;;;;;27.96;100.00;100607.34;5014632;28;20068;-70
2021/07/21 13:01:02;;;;;;;4.50;1.58;;;;;;;27.84;100.00;100611.22;5014024;28;20126;-71
2021/07/21 13:04:05;;;;;;;3.92;1.17;;;;;;;28.01;100.00;100611.38;5014492;28;20061;-71
2021/07/21 13:07:09;;;;;;;9.73;1.83;;;;;;;28.19;100.00;100615.88;5026623;28;20048;-70
2021/07/21 13:10:19;;;;;;;5.20;1.25;;;;;;;28.45;100.00;100612.47;5033359;28;20060;-70
2021/07/21 13:13:26;;;;;;;4.78;1.48;;;;;;;28.39;100.00;100612.69;5027904;28;20048;-71
2021/07/21 13:16:32;;;;;;;6.10;1.13;;;;;;;28.07;100.00;100618.41;5034095;28;20056;-71
2021/07/21 13:19:36;;;;;;;13.38;1.58;;;;;;;28.18;100.00;100605.75;5032440;28;20053;-70
2021/07/21 13:22:40;;;;;;;4.97;1.48;;;;;;;28.31;100.00;100608.34;5034145;28;20045;-69
2021/07/21 13:25:45;;;;;;;5.03;1.10;;;;;;;28.50;100.00;100600.78;5034029;28;20544;-69
2021/07/21 13:28:51;;;;;;;5.07;1.42;;;;;;;28.84;100.00;100605.91;5044799;28;20052;-70
2021/07/21 13:31:55;;;;;;;3.50;1.08;;;;;;;28.73;100.00;100603.50;5033852;28;20053;-69
2021/07/21 13:35:05;;;;;;;5.30;1.25;;;;;;;28.73;100.00;100602.75;5032670;28;20076;-70
2021/07/21 13:38:08;;;;;;;;;;;;;;;28.68;100.00;100606.59;5034638;28;20052;-74
2021/07/21 13:41:12;;;;;;;4.40;1.13;;;;;;;28.74;100.00;100605.03;5033766;28;19917;-72
2021/07/21 13:44:33;;;;;;;5.72;1.25;;;;;;;28.68;100.00;100603.72;5033604;28;20112;-68
2021/07/21 13:47:40;;;;;;;5.43;1.55;;;;;;;28.60;100.00;100605.91;5033651;28;20512;-71
2021/07/21 13:50:43;;;;;;;7.05;1.15;;;;;;;28.68;100.00;100601.63;5013467;28;20053;-71
2021/07/21 13:53:47;;;;;;;2.05;0.52;;;;;;;28.70;100.00;100598.94;5020025;28;20064;-71
2021/07/21 13:56:56;;;;;;;1.60;0.45;;;;;;;28.84;100.00;100602.28;5032599;28;20053;-71
2021/07/21 14:00:00;;;;;;;3.88;0.80;;;;;;;28.96;100.00;100597.56;5033025;28;20049;-71
2021/07/21 14:03:03;;;;;;;5.07;1.20;;;;;;;29.03;100.00;100588.91;5032580;28;20398;-74
2021/07/21 14:06:06;;;;;;;5.60;1.80;;;;;;;29.00;100.00;100592.22;5037446;28;20061;-71
2021/07/21 14:09:11;;;;;;;3.95;1.10;;;;;;;29.09;100.00;100591.53;5030618;28;20044;-71
2021/07/21 14:12:15;;;;;;;7.45;0.90;;;;;;;29.31;100.00;100587.72;5026442;28;20049;-72
2021/07/21 14:15:18;;;;;;;8.27;0.98;;;;;;;29.45;100.00;100591.78;5015864;28;20049;-71
2021/07/21 14:18:21;;;;;;;5.43;0.93;;;;;;;29.51;100.00;100588.66;5012765;28;20048;-72
2021/07/21 14:21:25;;;;;;;3.72;1.10;;;;;;;29.44;100.00;100589.50;5023973;28;20519;-71
2021/07/21 14:24:29;;;;;;;5.28;0.60;;;;;;;29.54;100.00;100582.47;5030612;28;20064;-71
2021/07/21 14:27:32;;;;;;;2.40;1.08;;;;;;;29.60;100.00;100590.84;5032731;28;20068;-71